TWA104 KJFK-EGLL
Flight info
| Callsign | TWA104 |
|---|---|
| Flight time | N/A |
| Altitude | 33000 |
| Route | MERIT DCT HFD DCT PUT DCT TOPPS DCT NEEKO/M085F350 DCT 54N050W 55N040W 55N030W 54N020W DCT MALOT DCT GISTI/N0489F370 DCT ENJEX DCT AVZAC DCT INFEC DCT JETZI DCT AMFUL DCT ORZEB/N0422F230 P2 SIRIC |
| Aircraft | L101/H-SDFGHIRWXY/S |
Departure
| Time | N/A |
|---|---|
| Airport | John F. Kennedy International Airport (KJFK) |
Arrival
| Time | 2026-04-30 22:49 |
|---|---|
| Airport | London Heathrow Airport (EGLL) |
| Time | Latitude | Longitude | Altitude | Speed | Heading |
|---|---|---|---|---|---|
| 2026-04-30 19:09 | 54.54364 | -45.70547 | 33091 ft | 509 kts | 80° |
| 2026-04-30 19:10 | 54.56895 | -45.46525 | 33084 ft | 510 kts | 81° |
| 2026-04-30 19:11 | 54.58840 | -45.28275 | 33479 ft | 528 kts | 81° |
| 2026-04-30 19:11 | 54.59497 | -45.22073 | 34313 ft | 523 kts | 81° |
| 2026-04-30 19:12 | 54.60139 | -45.15933 | 35287 ft | 520 kts | 81° |
| 2026-04-30 19:12 | 54.61405 | -45.03512 | 35279 ft | 524 kts | 82° |
| 2026-04-30 19:13 | 54.62597 | -44.91202 | 35112 ft | 526 kts | 82° |
| 2026-04-30 19:13 | 54.63866 | -44.78790 | 35080 ft | 525 kts | 81° |
| 2026-04-30 19:14 | 54.65109 | -44.66376 | 35087 ft | 524 kts | 82° |
| 2026-04-30 19:14 | 54.66323 | -44.53958 | 35083 ft | 524 kts | 82° |
| 2026-04-30 19:15 | 54.67515 | -44.41551 | 35081 ft | 523 kts | 82° |
| 2026-04-30 19:15 | 54.69257 | -44.22958 | 35075 ft | 523 kts | 82° |
| 2026-04-30 19:16 | 54.70453 | -44.10596 | 35077 ft | 523 kts | 82° |
| 2026-04-30 19:17 | 54.72154 | -43.91959 | 35070 ft | 523 kts | 82° |
| 2026-04-30 19:17 | 54.73842 | -43.73329 | 35073 ft | 523 kts | 82° |
| 2026-04-30 19:18 | 54.75516 | -43.54690 | 35072 ft | 522 kts | 83° |
| 2026-04-30 19:19 | 54.76598 | -43.42224 | 35076 ft | 524 kts | 83° |
| 2026-04-30 19:19 | 54.78225 | -43.23524 | 35063 ft | 524 kts | 82° |
| 2026-04-30 19:20 | 54.79289 | -43.11036 | 35061 ft | 524 kts | 83° |
| 2026-04-30 19:21 | 54.80863 | -42.92380 | 35064 ft | 524 kts | 83° |
| 2026-04-30 19:22 | 54.82921 | -42.67381 | 35065 ft | 523 kts | 83° |
| 2026-04-30 19:23 | 54.85892 | -42.29893 | 35060 ft | 522 kts | 83° |
| 2026-04-30 19:24 | 54.87334 | -42.11162 | 35061 ft | 522 kts | 83° |
| 2026-04-30 19:25 | 54.89522 | -41.82007 | 35060 ft | 522 kts | 83° |
| 2026-04-30 19:26 | 54.91478 | -41.54989 | 35066 ft | 521 kts | 83° |
| 2026-04-30 19:27 | 54.92675 | -41.38250 | 35055 ft | 522 kts | 84° |
| 2026-04-30 19:28 | 54.93967 | -41.19520 | 35054 ft | 522 kts | 84° |
| 2026-04-30 19:29 | 54.95648 | -40.94420 | 35057 ft | 522 kts | 84° |
| 2026-04-30 19:30 | 54.97277 | -40.69330 | 35055 ft | 522 kts | 84° |
| 2026-04-30 19:31 | 54.98881 | -40.44235 | 35052 ft | 521 kts | 85° |
| 2026-04-30 19:31 | 55.00072 | -40.25406 | 35053 ft | 521 kts | 84° |
| 2026-04-30 19:32 | 55.00791 | -40.12844 | 35055 ft | 521 kts | 85° |
| 2026-04-30 19:32 | 55.01517 | -40.00262 | 35053 ft | 521 kts | 86° |
| 2026-04-30 19:33 | 55.01551 | -39.87684 | 35054 ft | 520 kts | 95° |
| 2026-04-30 19:33 | 55.01281 | -39.75176 | 35046 ft | 520 kts | 89° |
| 2026-04-30 19:34 | 55.01629 | -39.62587 | 35044 ft | 521 kts | 87° |
| 2026-04-30 19:35 | 55.02297 | -39.43702 | 35047 ft | 520 kts | 86° |
| 2026-04-30 19:35 | 55.02776 | -39.31125 | 35047 ft | 521 kts | 87° |
| 2026-04-30 19:36 | 55.03189 | -39.18519 | 35045 ft | 520 kts | 86° |
| 2026-04-30 19:36 | 55.03874 | -38.99639 | 35047 ft | 520 kts | 86° |
| 2026-04-30 19:37 | 55.04287 | -38.87027 | 35051 ft | 521 kts | 87° |
| 2026-04-30 19:37 | 55.04669 | -38.74425 | 35051 ft | 520 kts | 86° |
| 2026-04-30 19:38 | 55.05106 | -38.61824 | 35054 ft | 520 kts | 87° |
| 2026-04-30 19:38 | 55.05463 | -38.49205 | 35052 ft | 521 kts | 86° |
| 2026-04-30 19:39 | 55.05867 | -38.36674 | 35054 ft | 521 kts | 86° |
| 2026-04-30 19:39 | 55.06243 | -38.24030 | 35056 ft | 522 kts | 87° |
| 2026-04-30 19:40 | 55.06615 | -38.11398 | 35051 ft | 522 kts | 88° |
| 2026-04-30 19:40 | 55.06942 | -37.98762 | 35051 ft | 522 kts | 87° |
| 2026-04-30 19:41 | 55.07260 | -37.86122 | 35050 ft | 522 kts | 87° |
| 2026-04-30 19:41 | 55.07545 | -37.73487 | 35055 ft | 521 kts | 88° |
| 2026-04-30 19:42 | 55.07850 | -37.60843 | 35051 ft | 521 kts | 87° |
| 2026-04-30 19:42 | 55.08138 | -37.48210 | 35052 ft | 521 kts | 88° |
| 2026-04-30 19:43 | 55.08405 | -37.35640 | 35057 ft | 521 kts | 88° |
| 2026-04-30 19:44 | 55.08790 | -37.16684 | 35045 ft | 521 kts | 88° |
| 2026-04-30 19:44 | 55.09008 | -37.04040 | 35053 ft | 521 kts | 88° |
| 2026-04-30 19:45 | 55.09232 | -36.91382 | 35046 ft | 521 kts | 88° |
| 2026-04-30 19:45 | 55.09449 | -36.78741 | 35031 ft | 522 kts | 88° |
| 2026-04-30 19:46 | 55.09641 | -36.66079 | 34998 ft | 522 kts | 88° |
| 2026-04-30 19:46 | 55.09821 | -36.53400 | 34994 ft | 522 kts | 88° |
| 2026-04-30 19:47 | 55.09977 | -36.40724 | 34984 ft | 522 kts | 88° |
| 2026-04-30 19:47 | 55.10176 | -36.28039 | 34997 ft | 524 kts | 88° |
| 2026-04-30 19:48 | 55.10293 | -36.15332 | 34985 ft | 524 kts | 88° |
| 2026-04-30 19:48 | 55.10449 | -36.02695 | 34988 ft | 523 kts | 88° |
| 2026-04-30 19:49 | 55.10551 | -35.89993 | 34985 ft | 523 kts | 88° |
| 2026-04-30 19:49 | 55.10744 | -35.70952 | 34982 ft | 523 kts | 88° |
| 2026-04-30 19:50 | 55.10853 | -35.58252 | 34981 ft | 523 kts | 89° |
| 2026-04-30 19:50 | 55.10811 | -35.45550 | 34980 ft | 523 kts | 89° |
| 2026-04-30 19:51 | 55.10897 | -35.32865 | 34980 ft | 522 kts | 88° |
| 2026-04-30 19:51 | 55.10980 | -35.20188 | 34979 ft | 522 kts | 89° |
| 2026-04-30 19:52 | 55.11001 | -35.07516 | 34980 ft | 522 kts | 89° |
| 2026-04-30 19:52 | 55.11032 | -34.94848 | 34979 ft | 522 kts | 89° |
| 2026-04-30 19:53 | 55.11053 | -34.82185 | 34980 ft | 521 kts | 89° |
| 2026-04-30 19:53 | 55.11032 | -34.69516 | 34980 ft | 521 kts | 89° |
| 2026-04-30 19:54 | 55.11033 | -34.56860 | 34974 ft | 522 kts | 89° |
| 2026-04-30 19:54 | 55.10966 | -34.44189 | 34970 ft | 522 kts | 89° |
| 2026-04-30 19:55 | 55.10930 | -34.31605 | 34972 ft | 521 kts | 89° |
| 2026-04-30 19:55 | 55.10875 | -34.18949 | 34971 ft | 521 kts | 90° |
| 2026-04-30 19:56 | 55.10796 | -34.06276 | 34970 ft | 522 kts | 89° |
| 2026-04-30 19:56 | 55.10710 | -33.93598 | 34973 ft | 522 kts | 89° |
| 2026-04-30 19:57 | 55.10639 | -33.80919 | 34971 ft | 522 kts | 89° |
| 2026-04-30 19:57 | 55.10529 | -33.68379 | 34970 ft | 521 kts | 89° |
| 2026-04-30 19:58 | 55.10411 | -33.55725 | 34971 ft | 521 kts | 90° |
| 2026-04-30 19:58 | 55.10290 | -33.43073 | 34971 ft | 521 kts | 90° |
| 2026-04-30 19:59 | 55.10137 | -33.30447 | 34972 ft | 520 kts | 90° |
| 2026-04-30 20:00 | 55.09912 | -33.11491 | 34962 ft | 520 kts | 90° |
| 2026-04-30 20:00 | 55.09722 | -32.98878 | 34961 ft | 520 kts | 90° |
| 2026-04-30 20:01 | 55.09368 | -32.79943 | 34963 ft | 520 kts | 90° |
| 2026-04-30 20:01 | 55.09161 | -32.67424 | 34962 ft | 519 kts | 90° |
| 2026-04-30 20:02 | 55.08821 | -32.48523 | 34962 ft | 519 kts | 90° |
| 2026-04-30 20:03 | 55.08415 | -32.29632 | 34965 ft | 519 kts | 90° |
| 2026-04-30 20:03 | 55.08189 | -32.17030 | 34961 ft | 519 kts | 90° |
| 2026-04-30 20:04 | 55.07921 | -32.04446 | 34963 ft | 519 kts | 91° |
| 2026-04-30 20:05 | 55.07436 | -31.85567 | 34961 ft | 519 kts | 90° |
| 2026-04-30 20:05 | 55.07040 | -31.66713 | 34960 ft | 518 kts | 90° |
| 2026-04-30 20:06 | 55.06669 | -31.54162 | 34954 ft | 518 kts | 91° |
| 2026-04-30 20:06 | 55.06301 | -31.41694 | 34958 ft | 518 kts | 91° |
| 2026-04-30 20:07 | 55.05927 | -31.29156 | 34961 ft | 517 kts | 90° |
| 2026-04-30 20:08 | 55.05384 | -31.10366 | 34962 ft | 517 kts | 91° |
| 2026-04-30 20:08 | 55.04985 | -30.97865 | 34926 ft | 517 kts | 91° |
| 2026-04-30 20:09 | 55.04592 | -30.85357 | 34894 ft | 516 kts | 91° |
| 2026-04-30 20:09 | 55.03996 | -30.66614 | 34888 ft | 516 kts | 91° |
| 2026-04-30 20:10 | 55.03336 | -30.47875 | 34888 ft | 516 kts | 91° |
| 2026-04-30 20:11 | 55.02707 | -30.29157 | 34887 ft | 516 kts | 91° |
| 2026-04-30 20:11 | 55.02211 | -30.16687 | 34888 ft | 516 kts | 91° |
| 2026-04-30 20:12 | 55.01453 | -29.98006 | 34889 ft | 516 kts | 94° |
| 2026-04-30 20:13 | 55.00106 | -29.85796 | 34892 ft | 517 kts | 101° |
| 2026-04-30 20:13 | 54.98734 | -29.73541 | 34888 ft | 515 kts | 95° |
| 2026-04-30 20:14 | 54.97914 | -29.61174 | 34888 ft | 514 kts | 93° |
| 2026-04-30 20:14 | 54.97134 | -29.48827 | 34888 ft | 513 kts | 94° |
| 2026-04-30 20:15 | 54.96341 | -29.36472 | 34887 ft | 513 kts | 93° |
| 2026-04-30 20:15 | 54.95572 | -29.24139 | 34888 ft | 513 kts | 94° |
| 2026-04-30 20:16 | 54.94770 | -29.11820 | 34887 ft | 512 kts | 93° |
| 2026-04-30 20:16 | 54.94041 | -28.99493 | 34888 ft | 512 kts | 93° |
| 2026-04-30 20:17 | 54.93207 | -28.87206 | 34887 ft | 512 kts | 94° |
| 2026-04-30 20:17 | 54.92394 | -28.74932 | 34888 ft | 511 kts | 93° |
| 2026-04-30 20:18 | 54.91626 | -28.62661 | 34888 ft | 510 kts | 93° |
| 2026-04-30 20:18 | 54.90839 | -28.50411 | 34886 ft | 510 kts | 94° |
| 2026-04-30 20:19 | 54.89969 | -28.38173 | 34886 ft | 510 kts | 94° |
| 2026-04-30 20:19 | 54.89107 | -28.26040 | 34887 ft | 509 kts | 94° |
| 2026-04-30 20:20 | 54.88206 | -28.13841 | 34888 ft | 508 kts | 94° |
| 2026-04-30 20:20 | 54.87340 | -28.01663 | 34887 ft | 508 kts | 94° |
| 2026-04-30 20:21 | 54.86449 | -27.89522 | 34887 ft | 506 kts | 94° |
| 2026-04-30 20:21 | 54.85553 | -27.77407 | 34886 ft | 506 kts | 94° |
| 2026-04-30 20:22 | 54.84625 | -27.65322 | 34889 ft | 506 kts | 94° |
| 2026-04-30 20:22 | 54.83728 | -27.53218 | 34888 ft | 506 kts | 94° |
| 2026-04-30 20:23 | 54.82983 | -27.43155 | 34887 ft | 506 kts | 94° |
| 2026-04-30 20:23 | 54.82051 | -27.31074 | 34888 ft | 505 kts | 94° |
| 2026-04-30 20:24 | 54.80908 | -27.17049 | 34888 ft | 506 kts | 95° |
| 2026-04-30 20:24 | 54.79931 | -27.04988 | 34888 ft | 505 kts | 94° |
| 2026-04-30 20:25 | 54.78669 | -26.88931 | 34888 ft | 505 kts | 94° |
| 2026-04-30 20:26 | 54.77200 | -26.70893 | 34887 ft | 504 kts | 94° |
| 2026-04-30 20:26 | 54.75646 | -26.52909 | 34886 ft | 503 kts | 95° |
| 2026-04-30 20:27 | 54.73589 | -26.29026 | 34882 ft | 501 kts | 94° |
| 2026-04-30 20:28 | 54.71477 | -26.05259 | 34932 ft | 499 kts | 95° |
| 2026-04-30 20:30 | 54.68847 | -25.75785 | 34932 ft | 497 kts | 94° |
| 2026-04-30 20:31 | 54.65539 | -25.40403 | 34932 ft | 498 kts | 95° |
| 2026-04-30 20:32 | 54.62700 | -25.10898 | 34932 ft | 498 kts | 95° |
| 2026-04-30 20:33 | 54.60987 | -24.93277 | 34929 ft | 498 kts | 95° |
| 2026-04-30 20:34 | 54.59244 | -24.75613 | 34932 ft | 498 kts | 95° |
| 2026-04-30 20:35 | 54.57470 | -24.57995 | 34932 ft | 497 kts | 95° |
| 2026-04-30 20:35 | 54.55679 | -24.40450 | 34934 ft | 495 kts | 95° |
| 2026-04-30 20:36 | 54.54478 | -24.28778 | 34939 ft | 494 kts | 95° |
| 2026-04-30 20:37 | 54.52598 | -24.11333 | 34944 ft | 493 kts | 96° |
| 2026-04-30 20:37 | 54.51365 | -23.99736 | 34946 ft | 492 kts | 95° |
| 2026-04-30 20:38 | 54.50148 | -23.88235 | 34937 ft | 491 kts | 96° |
| 2026-04-30 20:38 | 54.48902 | -23.76698 | 34943 ft | 491 kts | 96° |
| 2026-04-30 20:39 | 54.46996 | -23.59389 | 34955 ft | 491 kts | 96° |
| 2026-04-30 20:40 | 54.45085 | -23.42067 | 34963 ft | 492 kts | 96° |
| 2026-04-30 20:40 | 54.43775 | -23.30499 | 34964 ft | 493 kts | 96° |
| 2026-04-30 20:41 | 54.41781 | -23.13169 | 34960 ft | 493 kts | 96° |
| 2026-04-30 20:41 | 54.40465 | -23.01604 | 34947 ft | 493 kts | 97° |
| 2026-04-30 20:42 | 54.39110 | -22.90078 | 34932 ft | 493 kts | 97° |
| 2026-04-30 20:43 | 54.37104 | -22.72881 | 34931 ft | 492 kts | 97° |
| 2026-04-30 20:43 | 54.35749 | -22.61389 | 34933 ft | 491 kts | 97° |
| 2026-04-30 20:44 | 54.33670 | -22.44229 | 34946 ft | 489 kts | 97° |
| 2026-04-30 20:45 | 54.30906 | -22.21440 | 34947 ft | 488 kts | 97° |
| 2026-04-30 20:45 | 54.29496 | -22.10073 | 34945 ft | 488 kts | 97° |
| 2026-04-30 20:46 | 54.26673 | -21.87399 | 34951 ft | 487 kts | 97° |
| 2026-04-30 20:47 | 54.24533 | -21.70493 | 34949 ft | 487 kts | 97° |
| 2026-04-30 20:48 | 54.22356 | -21.53519 | 34954 ft | 488 kts | 98° |
| 2026-04-30 20:48 | 54.20892 | -21.42195 | 34956 ft | 488 kts | 98° |
| 2026-04-30 20:49 | 54.19410 | -21.30872 | 34952 ft | 489 kts | 98° |
| 2026-04-30 20:50 | 54.17168 | -21.13847 | 34953 ft | 490 kts | 99° |
| 2026-04-30 20:50 | 54.15669 | -21.02504 | 34952 ft | 491 kts | 99° |
| 2026-04-30 20:51 | 54.14127 | -20.91149 | 34951 ft | 491 kts | 100° |
| 2026-04-30 20:51 | 54.11834 | -20.74128 | 34951 ft | 491 kts | 100° |
| 2026-04-30 20:52 | 54.10282 | -20.62796 | 34957 ft | 491 kts | 101° |
| 2026-04-30 20:53 | 54.07956 | -20.45815 | 34961 ft | 491 kts | 101° |
| 2026-04-30 20:53 | 54.06385 | -20.34586 | 34964 ft | 490 kts | 102° |
| 2026-04-30 20:54 | 54.04030 | -20.17657 | 34970 ft | 490 kts | 102° |
| 2026-04-30 20:55 | 54.01546 | -20.00802 | 35029 ft | 490 kts | 105° |
| 2026-04-30 20:55 | 53.99266 | -19.89883 | 35037 ft | 491 kts | 112° |
| 2026-04-30 20:56 | 53.95527 | -19.73696 | 35036 ft | 490 kts | 106° |
| 2026-04-30 20:57 | 53.92529 | -19.57095 | 35035 ft | 490 kts | 105° |
| 2026-04-30 20:57 | 53.90538 | -19.46056 | 35036 ft | 490 kts | 106° |
| 2026-04-30 20:58 | 53.87562 | -19.29579 | 35035 ft | 489 kts | 105° |
| 2026-04-30 20:58 | 53.85572 | -19.18558 | 35035 ft | 489 kts | 105° |
| 2026-04-30 20:59 | 53.82563 | -19.02070 | 35035 ft | 488 kts | 106° |
| 2026-04-30 21:00 | 53.78507 | -18.80144 | 35035 ft | 488 kts | 106° |
| 2026-04-30 21:01 | 53.75433 | -18.63740 | 35045 ft | 488 kts | 106° |
| 2026-04-30 21:02 | 53.72384 | -18.47340 | 35044 ft | 488 kts | 106° |
| 2026-04-30 21:02 | 53.70312 | -18.36444 | 35046 ft | 488 kts | 107° |
| 2026-04-30 21:03 | 53.68215 | -18.25542 | 35043 ft | 488 kts | 107° |
| 2026-04-30 21:03 | 53.66138 | -18.14645 | 35044 ft | 488 kts | 107° |
| 2026-04-30 21:04 | 53.64052 | -18.03756 | 35044 ft | 488 kts | 107° |
| 2026-04-30 21:04 | 53.60906 | -17.87467 | 35044 ft | 487 kts | 107° |
| 2026-04-30 21:05 | 53.58802 | -17.76698 | 35043 ft | 487 kts | 107° |
| 2026-04-30 21:05 | 53.56688 | -17.65884 | 35041 ft | 486 kts | 107° |
| 2026-04-30 21:06 | 53.54557 | -17.55095 | 35046 ft | 485 kts | 107° |
| 2026-04-30 21:06 | 53.52427 | -17.44328 | 35043 ft | 485 kts | 107° |
| 2026-04-30 21:07 | 53.50288 | -17.33598 | 35052 ft | 484 kts | 107° |
| 2026-04-30 21:07 | 53.48151 | -17.22895 | 35054 ft | 483 kts | 107° |
| 2026-04-30 21:08 | 53.46005 | -17.12219 | 35052 ft | 482 kts | 108° |
| 2026-04-30 21:08 | 53.43851 | -17.01580 | 35053 ft | 481 kts | 108° |
| 2026-04-30 21:09 | 53.41666 | -16.90975 | 35052 ft | 480 kts | 108° |
| 2026-04-30 21:09 | 53.39537 | -16.80391 | 35055 ft | 479 kts | 108° |
| 2026-04-30 21:10 | 53.37377 | -16.69914 | 35057 ft | 479 kts | 109° |
| 2026-04-30 21:10 | 53.35143 | -16.59416 | 35054 ft | 478 kts | 109° |
| 2026-04-30 21:11 | 53.32947 | -16.48926 | 35053 ft | 478 kts | 108° |
| 2026-04-30 21:11 | 53.30767 | -16.38438 | 35055 ft | 477 kts | 108° |
| 2026-04-30 21:12 | 53.28569 | -16.27987 | 35052 ft | 476 kts | 109° |
| 2026-04-30 21:12 | 53.26356 | -16.17567 | 35052 ft | 476 kts | 109° |
| 2026-04-30 21:13 | 53.24151 | -16.07153 | 35057 ft | 476 kts | 109° |
| 2026-04-30 21:13 | 53.21928 | -15.96743 | 35056 ft | 476 kts | 109° |
| 2026-04-30 21:14 | 53.19696 | -15.86409 | 35056 ft | 473 kts | 109° |
| 2026-04-30 21:14 | 53.17500 | -15.76167 | 35054 ft | 472 kts | 109° |
| 2026-04-30 21:15 | 53.15262 | -15.65896 | 35057 ft | 471 kts | 110° |
| 2026-04-30 21:15 | 53.13031 | -15.55639 | 35055 ft | 471 kts | 109° |
| 2026-04-30 21:16 | 53.10796 | -15.45399 | 35052 ft | 470 kts | 110° |
| 2026-04-30 21:16 | 53.08539 | -15.35200 | 35058 ft | 470 kts | 110° |
| 2026-04-30 21:17 | 53.06287 | -15.25005 | 35065 ft | 469 kts | 110° |
| 2026-04-30 21:17 | 53.04036 | -15.14841 | 35062 ft | 468 kts | 110° |
| 2026-04-30 21:18 | 53.01793 | -15.04686 | 35060 ft | 468 kts | 107° |
| 2026-04-30 21:18 | 53.01140 | -14.99413 | 35029 ft | 466 kts | 94° |
| 2026-04-30 21:18 | 53.01037 | -14.94042 | 35077 ft | 467 kts | 92° |
| 2026-04-30 21:19 | 53.00646 | -14.83338 | 35073 ft | 467 kts | 96° |
| 2026-04-30 21:19 | 53.00215 | -14.72579 | 35064 ft | 467 kts | 92° |
| 2026-04-30 21:20 | 53.00197 | -14.61797 | 35060 ft | 467 kts | 91° |
| 2026-04-30 21:20 | 53.00220 | -14.51027 | 35064 ft | 466 kts | 91° |
| 2026-04-30 21:21 | 53.00179 | -14.40266 | 35064 ft | 466 kts | 91° |
| 2026-04-30 21:22 | 53.00180 | -14.24144 | 35062 ft | 465 kts | 91° |
| 2026-04-30 21:23 | 53.00115 | -14.02675 | 35062 ft | 464 kts | 95° |
| 2026-04-30 21:23 | 52.98855 | -13.86879 | 35061 ft | 462 kts | 99° |
| 2026-04-30 21:24 | 52.98037 | -13.76292 | 35066 ft | 462 kts | 99° |
| 2026-04-30 21:24 | 52.97202 | -13.65722 | 35060 ft | 462 kts | 100° |
| 2026-04-30 21:25 | 52.95960 | -13.51690 | 35060 ft | 462 kts | 100° |
| 2026-04-30 21:26 | 52.94597 | -13.35859 | 35066 ft | 463 kts | 100° |
| 2026-04-30 21:27 | 52.93191 | -13.20039 | 35063 ft | 462 kts | 101° |
| 2026-04-30 21:27 | 52.92256 | -13.09493 | 35066 ft | 463 kts | 100° |
| 2026-04-30 21:28 | 52.90894 | -12.93670 | 35063 ft | 462 kts | 102° |
| 2026-04-30 21:29 | 52.89349 | -12.77922 | 35064 ft | 462 kts | 102° |
| 2026-04-30 21:30 | 52.86860 | -12.51650 | 35065 ft | 463 kts | 101° |
| 2026-04-30 21:31 | 52.84395 | -12.25418 | 35061 ft | 463 kts | 102° |
| 2026-04-30 21:32 | 52.82865 | -12.09648 | 35066 ft | 463 kts | 102° |
| 2026-04-30 21:32 | 52.81811 | -11.99142 | 35064 ft | 463 kts | 102° |
| 2026-04-30 21:33 | 52.80179 | -11.83403 | 35065 ft | 464 kts | 103° |
| 2026-04-30 21:34 | 52.79152 | -11.72887 | 35063 ft | 464 kts | 103° |
| 2026-04-30 21:34 | 52.77553 | -11.57136 | 35066 ft | 464 kts | 103° |
| 2026-04-30 21:35 | 52.76478 | -11.46630 | 35059 ft | 464 kts | 104° |
| 2026-04-30 21:35 | 52.75340 | -11.36162 | 35064 ft | 463 kts | 104° |
| 2026-04-30 21:36 | 52.74247 | -11.25685 | 35064 ft | 463 kts | 103° |
| 2026-04-30 21:37 | 52.72026 | -11.04752 | 35060 ft | 463 kts | 104° |
| 2026-04-30 21:37 | 52.70897 | -10.94367 | 35056 ft | 463 kts | 104° |
| 2026-04-30 21:38 | 52.69762 | -10.83919 | 35056 ft | 463 kts | 104° |
| 2026-04-30 21:38 | 52.68619 | -10.73490 | 35055 ft | 463 kts | 104° |
| 2026-04-30 21:39 | 52.67459 | -10.63044 | 35056 ft | 463 kts | 105° |
| 2026-04-30 21:39 | 52.66310 | -10.52623 | 35057 ft | 462 kts | 105° |
| 2026-04-30 21:40 | 52.65116 | -10.42214 | 35056 ft | 462 kts | 105° |
| 2026-04-30 21:40 | 52.63942 | -10.31808 | 35053 ft | 462 kts | 105° |
| 2026-04-30 21:41 | 52.62742 | -10.21412 | 35056 ft | 462 kts | 105° |
| 2026-04-30 21:41 | 52.61547 | -10.11010 | 35057 ft | 462 kts | 106° |
| 2026-04-30 21:42 | 52.60367 | -10.00688 | 35056 ft | 462 kts | 106° |
| 2026-04-30 21:42 | 52.59133 | -9.90317 | 35050 ft | 462 kts | 107° |
| 2026-04-30 21:43 | 52.57915 | -9.79938 | 35052 ft | 463 kts | 105° |
| 2026-04-30 21:43 | 52.56700 | -9.69549 | 35054 ft | 463 kts | 107° |
| 2026-04-30 21:44 | 52.55433 | -9.59182 | 35054 ft | 462 kts | 106° |
| 2026-04-30 21:44 | 52.54180 | -9.48818 | 35064 ft | 463 kts | 107° |
| 2026-04-30 21:45 | 52.52880 | -9.38465 | 35061 ft | 462 kts | 107° |
| 2026-04-30 21:45 | 52.51514 | -9.28137 | 35060 ft | 464 kts | 107° |
| 2026-04-30 21:46 | 52.50264 | -9.17745 | 35062 ft | 464 kts | 105° |
| 2026-04-30 21:46 | 52.49026 | -9.07344 | 35065 ft | 464 kts | 107° |
| 2026-04-30 21:47 | 52.47720 | -8.97036 | 35068 ft | 465 kts | 106° |
| 2026-04-30 21:47 | 52.46434 | -8.86635 | 35075 ft | 465 kts | 106° |
| 2026-04-30 21:48 | 52.45156 | -8.76226 | 35071 ft | 466 kts | 106° |
| 2026-04-30 21:48 | 52.43748 | -8.65862 | 35069 ft | 466 kts | 107° |
| 2026-04-30 21:49 | 52.42388 | -8.55477 | 35070 ft | 467 kts | 106° |
| 2026-04-30 21:49 | 52.41060 | -8.45071 | 35068 ft | 467 kts | 106° |
| 2026-04-30 21:50 | 52.39679 | -8.34687 | 35079 ft | 467 kts | 107° |
| 2026-04-30 21:50 | 52.38253 | -8.24391 | 35076 ft | 467 kts | 107° |
| 2026-04-30 21:51 | 52.36844 | -8.14023 | 35079 ft | 467 kts | 106° |
| 2026-04-30 21:51 | 52.35529 | -8.03598 | 35081 ft | 468 kts | 107° |
| 2026-04-30 21:52 | 52.34101 | -7.93231 | 35089 ft | 467 kts | 107° |
| 2026-04-30 21:52 | 52.32654 | -7.82863 | 35097 ft | 468 kts | 107° |
| 2026-04-30 21:53 | 52.31237 | -7.72478 | 35087 ft | 468 kts | 107° |
| 2026-04-30 21:53 | 52.29796 | -7.62112 | 35082 ft | 468 kts | 107° |
| 2026-04-30 21:54 | 52.28351 | -7.51750 | 35100 ft | 468 kts | 107° |
| 2026-04-30 21:54 | 52.26916 | -7.41362 | 35098 ft | 469 kts | 106° |
| 2026-04-30 21:55 | 52.25465 | -7.30981 | 35101 ft | 469 kts | 107° |
| 2026-04-30 21:55 | 52.23993 | -7.20667 | 35102 ft | 470 kts | 107° |
| 2026-04-30 21:56 | 52.22520 | -7.10277 | 35098 ft | 471 kts | 107° |
| 2026-04-30 21:56 | 52.21063 | -6.99872 | 35101 ft | 472 kts | 107° |
| 2026-04-30 21:57 | 52.19513 | -6.89474 | 35099 ft | 472 kts | 107° |
| 2026-04-30 21:57 | 52.17984 | -6.79052 | 35101 ft | 474 kts | 107° |
| 2026-04-30 21:58 | 52.16461 | -6.68596 | 35100 ft | 475 kts | 106° |
| 2026-04-30 21:58 | 52.14929 | -6.58133 | 35099 ft | 475 kts | 107° |
| 2026-04-30 21:59 | 52.13334 | -6.47677 | 35100 ft | 476 kts | 107° |
| 2026-04-30 22:00 | 52.11003 | -6.31934 | 35101 ft | 478 kts | 107° |
| 2026-04-30 22:00 | 52.08520 | -6.16324 | 35102 ft | 478 kts | 106° |
| 2026-04-30 22:01 | 52.06862 | -6.05860 | 35078 ft | 476 kts | 113° |
| 2026-04-30 22:01 | 52.04002 | -5.96250 | 35105 ft | 472 kts | 122° |
| 2026-04-30 22:02 | 52.00878 | -5.86862 | 35102 ft | 473 kts | 119° |
| 2026-04-30 22:02 | 51.98024 | -5.77234 | 35102 ft | 474 kts | 117° |
| 2026-04-30 22:03 | 51.95252 | -5.67543 | 35100 ft | 474 kts | 117° |
| 2026-04-30 22:03 | 51.92535 | -5.57809 | 35100 ft | 474 kts | 117° |
| 2026-04-30 22:04 | 51.89786 | -5.48110 | 35101 ft | 473 kts | 117° |
| 2026-04-30 22:05 | 51.85682 | -5.33585 | 35107 ft | 473 kts | 118° |
| 2026-04-30 22:05 | 51.82878 | -5.23967 | 35108 ft | 473 kts | 118° |
| 2026-04-30 22:06 | 51.80063 | -5.14351 | 35103 ft | 473 kts | 118° |
| 2026-04-30 22:06 | 51.75987 | -4.99815 | 35101 ft | 474 kts | 116° |
| 2026-04-30 22:07 | 51.73385 | -4.90050 | 35108 ft | 474 kts | 116° |
| 2026-04-30 22:07 | 51.70804 | -4.80268 | 35108 ft | 474 kts | 115° |
| 2026-04-30 22:08 | 51.68195 | -4.70537 | 35106 ft | 473 kts | 116° |
| 2026-04-30 22:08 | 51.65666 | -4.60839 | 35107 ft | 473 kts | 115° |
| 2026-04-30 22:09 | 51.63112 | -4.51099 | 35098 ft | 473 kts | 116° |
| 2026-04-30 22:09 | 51.60480 | -4.41426 | 35101 ft | 471 kts | 116° |
| 2026-04-30 22:10 | 51.57881 | -4.31759 | 35101 ft | 471 kts | 116° |
| 2026-04-30 22:10 | 51.55319 | -4.22071 | 35100 ft | 472 kts | 112° |
| 2026-04-30 22:11 | 51.53172 | -4.06555 | 35114 ft | 476 kts | 104° |
| 2026-04-30 22:12 | 51.51885 | -3.96135 | 35116 ft | 476 kts | 104° |
| 2026-04-30 22:12 | 51.50703 | -3.85669 | 35125 ft | 476 kts | 103° |
| 2026-04-30 22:13 | 51.49493 | -3.75295 | 35133 ft | 476 kts | 104° |
| 2026-04-30 22:13 | 51.48241 | -3.64872 | 35142 ft | 477 kts | 102° |
| 2026-04-30 22:14 | 51.47544 | -3.54273 | 35151 ft | 479 kts | 98° |
| 2026-04-30 22:14 | 51.46898 | -3.43667 | 35155 ft | 479 kts | 99° |
| 2026-04-30 22:15 | 51.46225 | -3.33036 | 35155 ft | 479 kts | 98° |
| 2026-04-30 22:15 | 51.45616 | -3.22396 | 35156 ft | 479 kts | 98° |
| 2026-04-30 22:16 | 51.44974 | -3.11773 | 35156 ft | 478 kts | 98° |
| 2026-04-30 22:17 | 51.43701 | -2.90526 | 35156 ft | 478 kts | 98° |
| 2026-04-30 22:17 | 51.42689 | -2.74749 | 35155 ft | 478 kts | 98° |
| 2026-04-30 22:18 | 51.41685 | -2.58830 | 35155 ft | 478 kts | 98° |
| 2026-04-30 22:19 | 51.40625 | -2.42955 | 35156 ft | 474 kts | 99° |
| 2026-04-30 22:19 | 51.39891 | -2.32883 | 34098 ft | 446 kts | 99° |
| 2026-04-30 22:20 | 51.39532 | -2.27977 | 33272 ft | 441 kts | 99° |
| 2026-04-30 22:20 | 51.38860 | -2.18355 | 31692 ft | 428 kts | 100° |
| 2026-04-30 22:20 | 51.38538 | -2.13661 | 30941 ft | 422 kts | 99° |
| 2026-04-30 22:21 | 51.38233 | -2.09032 | 30191 ft | 415 kts | 100° |
| 2026-04-30 22:21 | 51.37912 | -2.04481 | 29438 ft | 408 kts | 101° |
| 2026-04-30 22:21 | 51.37632 | -2.00005 | 28685 ft | 402 kts | 99° |
| 2026-04-30 22:21 | 51.37377 | -1.95579 | 27935 ft | 396 kts | 100° |
| 2026-04-30 22:22 | 51.37046 | -1.91246 | 27184 ft | 389 kts | 102° |
| 2026-04-30 22:22 | 51.36689 | -1.87045 | 26443 ft | 383 kts | 102° |
| 2026-04-30 22:22 | 51.36326 | -1.82863 | 25692 ft | 378 kts | 102° |
| 2026-04-30 22:22 | 51.35983 | -1.78703 | 24939 ft | 373 kts | 102° |
| 2026-04-30 22:23 | 51.35672 | -1.74608 | 24188 ft | 369 kts | 101° |
| 2026-04-30 22:23 | 51.35380 | -1.70564 | 23436 ft | 364 kts | 101° |
| 2026-04-30 22:23 | 51.35093 | -1.66564 | 22687 ft | 359 kts | 101° |
| 2026-04-30 22:23 | 51.34811 | -1.62613 | 21933 ft | 355 kts | 101° |
| 2026-04-30 22:24 | 51.34530 | -1.58715 | 21160 ft | 351 kts | 101° |
| 2026-04-30 22:24 | 51.34245 | -1.54864 | 20429 ft | 347 kts | 101° |
| 2026-04-30 22:24 | 51.34051 | -1.52286 | 19921 ft | 345 kts | 101° |
| 2026-04-30 22:24 | 51.33763 | -1.48498 | 19171 ft | 341 kts | 101° |
| 2026-04-30 22:25 | 51.33472 | -1.44752 | 18418 ft | 338 kts | 101° |
| 2026-04-30 22:25 | 51.33198 | -1.41094 | 17676 ft | 335 kts | 101° |
| 2026-04-30 22:25 | 51.32926 | -1.37417 | 16925 ft | 331 kts | 101° |
| 2026-04-30 22:25 | 51.32650 | -1.33782 | 16169 ft | 328 kts | 101° |
| 2026-04-30 22:26 | 51.32089 | -1.26630 | 14764 ft | 319 kts | 101° |
| 2026-04-30 22:26 | 51.31830 | -1.23160 | 14316 ft | 308 kts | 101° |
| 2026-04-30 22:26 | 51.31584 | -1.19821 | 13877 ft | 299 kts | 99° |
| 2026-04-30 22:27 | 51.31465 | -1.16533 | 13392 ft | 293 kts | 95° |
| 2026-04-30 22:27 | 51.31439 | -1.13299 | 12807 ft | 290 kts | 95° |
| 2026-04-30 22:27 | 51.31329 | -1.06808 | 11290 ft | 294 kts | 97° |
| 2026-04-30 22:28 | 51.31142 | -1.00339 | 10244 ft | 284 kts | 95° |
| 2026-04-30 22:28 | 51.31128 | -0.97194 | 10031 ft | 284 kts | 93° |
| 2026-04-30 22:29 | 51.31082 | -0.87725 | 9333 ft | 283 kts | 94° |
| 2026-04-30 22:29 | 51.31032 | -0.84582 | 9075 ft | 283 kts | 95° |
| 2026-04-30 22:30 | 51.30920 | -0.72729 | 8066 ft | 247 kts | 95° |
| 2026-04-30 22:31 | 51.30784 | -0.64831 | 7319 ft | 229 kts | 96° |
| 2026-04-30 22:32 | 51.29069 | -0.58401 | 6988 ft | 217 kts | 126° |
| 2026-04-30 22:32 | 51.28316 | -0.53692 | 7000 ft | 228 kts | 94° |
| 2026-04-30 22:33 | 51.28446 | -0.46085 | 6992 ft | 228 kts | 92° |
| 2026-04-30 22:33 | 51.27919 | -0.41278 | 6931 ft | 216 kts | 130° |
| 2026-04-30 22:34 | 51.24384 | -0.36822 | 6991 ft | 218 kts | 147° |
| 2026-04-30 22:35 | 51.21843 | -0.34179 | 6996 ft | 218 kts | 148° |
| 2026-04-30 22:36 | 51.16903 | -0.35535 | 6978 ft | 234 kts | 250° |
| 2026-04-30 22:36 | 51.16845 | -0.38155 | 6986 ft | 244 kts | 281° |
| 2026-04-30 22:37 | 51.20760 | -0.42452 | 7004 ft | 250 kts | 11° |
| 2026-04-30 22:37 | 51.22461 | -0.41948 | 7039 ft | 253 kts | 2° |
| 2026-04-30 22:37 | 51.25868 | -0.43275 | 7039 ft | 255 kts | 339° |
| 2026-04-30 22:38 | 51.29150 | -0.45435 | 6999 ft | 255 kts | 337° |
| 2026-04-30 22:38 | 51.32406 | -0.47701 | 6977 ft | 255 kts | 328° |
| 2026-04-30 22:39 | 51.33722 | -0.49550 | 6957 ft | 251 kts | 303° |
| 2026-04-30 22:39 | 51.35592 | -0.57251 | 6259 ft | 245 kts | 281° |
| 2026-04-30 22:40 | 51.36859 | -0.64787 | 5049 ft | 226 kts | 281° |
| 2026-04-30 22:41 | 51.38021 | -0.71801 | 4073 ft | 210 kts | 281° |
| 2026-04-30 22:41 | 51.38758 | -0.76337 | 3301 ft | 210 kts | 281° |
| 2026-04-30 22:42 | 51.43103 | -0.80276 | 2489 ft | 188 kts | 15° |
| 2026-04-30 22:43 | 51.45294 | -0.78332 | 2492 ft | 179 kts | 43° |
| 2026-04-30 22:43 | 51.47251 | -0.75887 | 2480 ft | 176 kts | 44° |
| 2026-04-30 22:44 | 51.47803 | -0.72697 | 2498 ft | 154 kts | 103° |
| 2026-04-30 22:45 | 51.47696 | -0.65812 | 2164 ft | 146 kts | 91° |
| 2026-04-30 22:45 | 51.47706 | -0.62558 | 1860 ft | 153 kts | 90° |
| 2026-04-30 22:46 | 51.47720 | -0.59108 | 1409 ft | 156 kts | 89° |
| 2026-04-30 22:47 | 51.47719 | -0.52083 | 585 ft | 158 kts | 89° |
| 2026-04-30 22:47 | 51.47750 | -0.48575 | 142 ft | 157 kts | 89° |
| 2026-04-30 22:48 | 51.47759 | -0.45426 | 93 ft | 100 kts | 89° |
| 2026-04-30 22:49 | 51.47742 | -0.44528 | 95 ft | 17 kts | 108° |
| 2026-04-30 22:49 | 51.47576 | -0.44085 | 93 ft | 13 kts | 137° |
| 2026-04-30 22:50 | 51.47269 | -0.44118 | 90 ft | 7 kts | 269° |
| 2026-04-30 22:51 | 51.47269 | -0.44215 | 90 ft | 0 kts | 270° |